Dallas, Texas
Traffic Map
Current Weather Conditions
Dallas, Texas
Few Clouds
Few Clouds
50°
Feels Like: 50°
Wind Chill: 50° Ceiling: Unl
Heat Index: 50° Visibility: 10mi
Dew Point: 32° Wind: 8mph
Humidity: 50% Direction: 350° (N)
Pressure: 30.33in Gusts: 0mph
Raw Report DataKDAL 151653Z 35007KT 10SM FEW180 FEW240 10/00 A3033 RMK AO2 SLP268 T01000000
Traffic Incident Summary
Active as of:
Severity:
Category:
InformationThere was an issue retrieving the traffic information for this location. Please try a different location or try again shortly.
Advertisements